Kezdőlap
METAR-TAF:

METAR-TAF

Repülőterek :

Bridgeport Municipal Airport

Bridgeport, Texas, Amerikai Egyesült Államok

földrajzi szélesség: 33-10-31N, földrajzi hosszúság: 097-49-42W, magasság: 260 m

Jelenlegi meteorológiai megfigyelések

A jelentés 23 perccel ezelõtt készült, 03:15 UTC
Déli szél 5 kt
Hőmérséklet 27°C
Páratartalom 62%
Légköri nyomás 1019 hPa
Látótávolság: 16.1 km
Derült ég

METAR: KXBP 220315Z AUTO 17005KT 10SM CLR 27/19 A3009 RMK AO2 T02700190

Idő: 22:38 (03:38 UTC)


TAF: hiányzik

Meteorológiai megfigyelések és előrejelzések több, mint 4000 repülőtéren (METAR és TAF jelentéseket).

A térképen piros és sárga pontok jelzik az elérhető meteorológiai állomásokat.

Mozgassa az egeret a pont fölött, hogy megjelenjen az állomás neve.

Azután kattintson az időjárási megfigyelések és előrejelzések megtekintéséhez.

A térkép megváltoztatása: kattintson a fekete keresztel jelölt zöld gombra ráközelítéshez, a vonallal jelölt zöld gombra távolításhoz, vagy a zöld nyilakra a szomszédos térképek eléréséhez.


METAR-TAF: